sensor_id;sensor_type;location;lat;lon;timestamp;temperature;humidity
66861;SHT31;53770;42.334;23.550;2022-10-15T00:02:12;10.82;76.88
66861;SHT31;53770;42.334;23.550;2022-10-15T00:04:38;10.82;76.57
66861;SHT31;53770;42.334;23.550;2022-10-15T00:07:05;10.79;76.81
66861;SHT31;53770;42.334;23.550;2022-10-15T00:09:32;10.73;77.01
66861;SHT31;53770;42.334;23.550;2022-10-15T00:12:00;10.66;77.11
66861;SHT31;53770;42.334;23.550;2022-10-15T00:14:28;10.69;76.98
66861;SHT31;53770;42.334;23.550;2022-10-15T00:16:55;10.76;76.94
66861;SHT31;53770;42.334;23.550;2022-10-15T00:19:21;10.76;76.73
66861;SHT31;53770;42.334;23.550;2022-10-15T00:21:48;10.73;76.58
66861;SHT31;53770;42.334;23.550;2022-10-15T00:24:15;10.71;76.74
66861;SHT31;53770;42.334;23.550;2022-10-15T00:26:42;10.71;76.75
66861;SHT31;53770;42.334;23.550;2022-10-15T00:29:10;10.66;76.69
66861;SHT31;53770;42.334;23.550;2022-10-15T00:31:37;10.62;76.90
66861;SHT31;53770;42.334;23.550;2022-10-15T00:34:04;10.61;76.74
66861;SHT31;53770;42.334;23.550;2022-10-15T00:36:32;10.62;76.48
66861;SHT31;53770;42.334;23.550;2022-10-15T00:38:59;10.61;76.57
66861;SHT31;53770;42.334;23.550;2022-10-15T00:41:28;10.51;76.85
66861;SHT31;53770;42.334;23.550;2022-10-15T00:43:57;10.52;77.08
66861;SHT31;53770;42.334;23.550;2022-10-15T00:46:29;10.44;77.22
66861;SHT31;53770;42.334;23.550;2022-10-15T00:48:59;10.44;77.29
66861;SHT31;53770;42.334;23.550;2022-10-15T00:51:32;10.41;77.27
66861;SHT31;53770;42.334;23.550;2022-10-15T00:54:01;10.41;77.29
66861;SHT31;53770;42.334;23.550;2022-10-15T00:56:30;10.41;77.27
66861;SHT31;53770;42.334;23.550;2022-10-15T00:58:59;10.40;77.39
66861;SHT31;53770;42.334;23.550;2022-10-15T01:01:27;10.41;77.42
66861;SHT31;53770;42.334;23.550;2022-10-15T01:03:54;10.38;77.69
66861;SHT31;53770;42.334;23.550;2022-10-15T01:06:22;10.42;77.40
66861;SHT31;53770;42.334;23.550;2022-10-15T01:08:49;10.36;77.54
66861;SHT31;53770;42.334;23.550;2022-10-15T01:11:28;10.40;77.54
66861;SHT31;53770;42.334;23.550;2022-10-15T01:14:03;10.33;77.82
66861;SHT31;53770;42.334;23.550;2022-10-15T01:16:39;10.33;77.82
66861;SHT31;53770;42.334;23.550;2022-10-15T01:19:23;10.31;77.70
66861;SHT31;53770;42.334;23.550;2022-10-15T01:22:00;10.27;77.76
66861;SHT31;53770;42.334;23.550;2022-10-15T01:24:43;10.25;77.73
66861;SHT31;53770;42.334;23.550;2022-10-15T01:27:32;10.30;77.74
66861;SHT31;53770;42.334;23.550;2022-10-15T01:30:23;10.27;77.57
66861;SHT31;53770;42.334;23.550;2022-10-15T01:35:58;10.20;77.75
66861;SHT31;53770;42.334;23.550;2022-10-15T01:38:37;10.14;77.90
66861;SHT31;53770;42.334;23.550;2022-10-15T01:41:09;10.16;77.83
66861;SHT31;53770;42.334;23.550;2022-10-15T01:43:42;10.13;77.93
66861;SHT31;53770;42.334;23.550;2022-10-15T01:46:15;10.17;77.92
66861;SHT31;53770;42.334;23.550;2022-10-15T01:48:44;10.14;77.97
66861;SHT31;53770;42.334;23.550;2022-10-15T01:51:12;10.14;77.91
66861;SHT31;53770;42.334;23.550;2022-10-15T01:53:41;10.11;78.01
66861;SHT31;53770;42.334;23.550;2022-10-15T01:56:14;10.18;78.12
66861;SHT31;53770;42.334;23.550;2022-10-15T01:58:43;10.17;78.09
66861;SHT31;53770;42.334;23.550;2022-10-15T02:01:14;10.21;77.85
66861;SHT31;53770;42.334;23.550;2022-10-15T02:03:46;10.16;78.12
66861;SHT31;53770;42.334;23.550;2022-10-15T02:09:33;10.16;78.39
66861;SHT31;53770;42.334;23.550;2022-10-15T02:12:10;10.21;78.42
66861;SHT31;53770;42.334;23.550;2022-10-15T02:14:45;10.27;78.13
66861;SHT31;53770;42.334;23.550;2022-10-15T02:17:16;10.27;77.96
66861;SHT31;53770;42.334;23.550;2022-10-15T02:19:49;10.25;77.91
66861;SHT31;53770;42.334;23.550;2022-10-15T02:22:21;10.28;77.90
66861;SHT31;53770;42.334;23.550;2022-10-15T02:24:54;10.24;77.93
66861;SHT31;53770;42.334;23.550;2022-10-15T02:27:22;10.25;77.81
66861;SHT31;53770;42.334;23.550;2022-10-15T02:29:50;10.25;77.83
66861;SHT31;53770;42.334;23.550;2022-10-15T02:32:21;10.28;77.91
66861;SHT31;53770;42.334;23.550;2022-10-15T02:34:48;10.31;77.61
66861;SHT31;53770;42.334;23.550;2022-10-15T02:37:19;10.31;77.69
66861;SHT31;53770;42.334;23.550;2022-10-15T02:39:46;10.22;77.65
66861;SHT31;53770;42.334;23.550;2022-10-15T02:42:13;10.17;77.80
66861;SHT31;53770;42.334;23.550;2022-10-15T02:44:41;10.07;78.37
66861;SHT31;53770;42.334;23.550;2022-10-15T02:47:08;10.07;78.36
66861;SHT31;53770;42.334;23.550;2022-10-15T02:49:37;10.07;78.71
66861;SHT31;53770;42.334;23.550;2022-10-15T02:52:04;10.09;78.76
66861;SHT31;53770;42.334;23.550;2022-10-15T02:54:31;10.11;78.62
66861;SHT31;53770;42.334;23.550;2022-10-15T02:56:58;10.16;78.39
66861;SHT31;53770;42.334;23.550;2022-10-15T02:59:25;10.13;78.45
66861;SHT31;53770;42.334;23.550;2022-10-15T03:01:52;10.13;78.48
66861;SHT31;53770;42.334;23.550;2022-10-15T03:04:18;10.16;78.31
66861;SHT31;53770;42.334;23.550;2022-10-15T03:06:47;10.11;78.31
66861;SHT31;53770;42.334;23.550;2022-10-15T03:09:14;10.07;78.46
66861;SHT31;53770;42.334;23.550;2022-10-15T03:11:40;10.11;78.51
66861;SHT31;53770;42.334;23.550;2022-10-15T03:14:07;10.13;78.14
66861;SHT31;53770;42.334;23.550;2022-10-15T03:16:34;10.11;78.12
66861;SHT31;53770;42.334;23.550;2022-10-15T03:19:01;10.10;77.95
66861;SHT31;53770;42.334;23.550;2022-10-15T03:21:28;10.00;78.17
66861;SHT31;53770;42.334;23.550;2022-10-15T03:23:56;9.92;78.40
66861;SHT31;53770;42.334;23.550;2022-10-15T03:26:23;9.86;78.58
66861;SHT31;53770;42.334;23.550;2022-10-15T03:28:50;9.85;78.74
66861;SHT31;53770;42.334;23.550;2022-10-15T03:31:17;9.83;78.80
66861;SHT31;53770;42.334;23.550;2022-10-15T03:33:44;9.76;78.77
66861;SHT31;53770;42.334;23.550;2022-10-15T03:36:10;9.76;79.20
66861;SHT31;53770;42.334;23.550;2022-10-15T03:38:37;9.76;79.24
66861;SHT31;53770;42.334;23.550;2022-10-15T03:41:05;9.81;79.19
66861;SHT31;53770;42.334;23.550;2022-10-15T03:43:32;9.83;79.13
66861;SHT31;53770;42.334;23.550;2022-10-15T03:46:00;9.89;78.90
66861;SHT31;53770;42.334;23.550;2022-10-15T03:48:27;9.97;78.76
66861;SHT31;53770;42.334;23.550;2022-10-15T03:50:54;10.01;78.60
66861;SHT31;53770;42.334;23.550;2022-10-15T03:53:21;10.07;78.14
66861;SHT31;53770;42.334;23.550;2022-10-15T03:55:48;10.11;78.08
66861;SHT31;53770;42.334;23.550;2022-10-15T03:58:16;10.10;77.67
66861;SHT31;53770;42.334;23.550;2022-10-15T04:00:43;10.11;77.81
66861;SHT31;53770;42.334;23.550;2022-10-15T04:03:10;10.13;77.58
66861;SHT31;53770;42.334;23.550;2022-10-15T04:05:37;10.11;77.49
66861;SHT31;53770;42.334;23.550;2022-10-15T04:08:04;10.10;77.54
66861;SHT31;53770;42.334;23.550;2022-10-15T04:10:31;10.13;77.63
66861;SHT31;53770;42.334;23.550;2022-10-15T04:12:57;10.14;77.52
66861;SHT31;53770;42.334;23.550;2022-10-15T04:15:26;10.14;77.51
66861;SHT31;53770;42.334;23.550;2022-10-15T04:17:53;10.13;77.39
66861;SHT31;53770;42.334;23.550;2022-10-15T04:20:20;10.13;77.52
66861;SHT31;53770;42.334;23.550;2022-10-15T04:22:46;10.11;77.70
66861;SHT31;53770;42.334;23.550;2022-10-15T04:25:13;10.10;77.66
66861;SHT31;53770;42.334;23.550;2022-10-15T04:27:40;10.14;77.44
66861;SHT31;53770;42.334;23.550;2022-10-15T04:30:08;10.11;77.69
66861;SHT31;53770;42.334;23.550;2022-10-15T04:32:36;10.07;77.66
66861;SHT31;53770;42.334;23.550;2022-10-15T04:35:04;10.07;77.77
66861;SHT31;53770;42.334;23.550;2022-10-15T04:37:32;10.00;77.76
66861;SHT31;53770;42.334;23.550;2022-10-15T04:39:59;9.94;77.90
66861;SHT31;53770;42.334;23.550;2022-10-15T04:42:27;9.93;78.15
66861;SHT31;53770;42.334;23.550;2022-10-15T04:44:55;9.96;78.16
66861;SHT31;53770;42.334;23.550;2022-10-15T04:47:22;9.93;78.23
66861;SHT31;53770;42.334;23.550;2022-10-15T04:49:57;9.94;77.93
66861;SHT31;53770;42.334;23.550;2022-10-15T04:52:24;9.94;78.13
66861;SHT31;53770;42.334;23.550;2022-10-15T04:54:51;9.94;78.08
66861;SHT31;53770;42.334;23.550;2022-10-15T04:57:18;9.93;78.08
66861;SHT31;53770;42.334;23.550;2022-10-15T04:59:44;9.96;78.05
66861;SHT31;53770;42.334;23.550;2022-10-15T05:02:11;9.99;77.99
66861;SHT31;53770;42.334;23.550;2022-10-15T05:04:38;10.03;77.66
66861;SHT31;53770;42.334;23.550;2022-10-15T05:07:06;10.03;77.43
66861;SHT31;53770;42.334;23.550;2022-10-15T05:09:33;9.94;77.79
66861;SHT31;53770;42.334;23.550;2022-10-15T05:12:00;9.97;77.79
66861;SHT31;53770;42.334;23.550;2022-10-15T05:14:26;9.99;77.78
66861;SHT31;53770;42.334;23.550;2022-10-15T05:16:53;9.99;77.87
66861;SHT31;53770;42.334;23.550;2022-10-15T05:19:21;10.00;77.77
66861;SHT31;53770;42.334;23.550;2022-10-15T05:21:47;9.99;77.92
66861;SHT31;53770;42.334;23.550;2022-10-15T05:24:16;10.00;77.95
66861;SHT31;53770;42.334;23.550;2022-10-15T05:26:42;9.96;77.80
66861;SHT31;53770;42.334;23.550;2022-10-15T05:29:09;9.93;77.92
66861;SHT31;53770;42.334;23.550;2022-10-15T05:31:36;9.93;77.96
66861;SHT31;53770;42.334;23.550;2022-10-15T05:34:05;9.87;77.94
66861;SHT31;53770;42.334;23.550;2022-10-15T05:36:32;9.85;77.98
66861;SHT31;53770;42.334;23.550;2022-10-15T05:39:00;9.78;78.05
66861;SHT31;53770;42.334;23.550;2022-10-15T05:41:29;9.73;78.07
66861;SHT31;53770;42.334;23.550;2022-10-15T05:43:57;9.66;78.33
66861;SHT31;53770;42.334;23.550;2022-10-15T05:46:24;9.66;78.49
66861;SHT31;53770;42.334;23.550;2022-10-15T05:48:52;9.61;78.69
66861;SHT31;53770;42.334;23.550;2022-10-15T05:51:19;9.56;78.77
66861;SHT31;53770;42.334;23.550;2022-10-15T05:53:46;9.55;78.98
66861;SHT31;53770;42.334;23.550;2022-10-15T05:56:13;9.59;79.00
66861;SHT31;53770;42.334;23.550;2022-10-15T05:58:41;9.61;78.98
66861;SHT31;53770;42.334;23.550;2022-10-15T06:01:09;9.68;78.88
66861;SHT31;53770;42.334;23.550;2022-10-15T06:03:36;9.73;78.75
66861;SHT31;53770;42.334;23.550;2022-10-15T06:06:04;9.79;78.59
66861;SHT31;53770;42.334;23.550;2022-10-15T06:08:31;9.82;78.30
66861;SHT31;53770;42.334;23.550;2022-10-15T06:11:01;9.89;78.28
66861;SHT31;53770;42.334;23.550;2022-10-15T06:13:28;10.01;77.58
66861;SHT31;53770;42.334;23.550;2022-10-15T06:15:56;10.10;77.68
66861;SHT31;53770;42.334;23.550;2022-10-15T06:18:23;10.17;77.41
66861;SHT31;53770;42.334;23.550;2022-10-15T06:20:51;10.27;77.32
66861;SHT31;53770;42.334;23.550;2022-10-15T06:23:18;10.37;77.04
66861;SHT31;53770;42.334;23.550;2022-10-15T06:25:45;10.48;76.81
66861;SHT31;53770;42.334;23.550;2022-10-15T06:28:13;10.64;76.50
66861;SHT31;53770;42.334;23.550;2022-10-15T06:30:40;10.76;75.75
66861;SHT31;53770;42.334;23.550;2022-10-15T06:33:08;10.88;75.48
66861;SHT31;53770;42.334;23.550;2022-10-15T06:35:35;10.96;75.08
66861;SHT31;53770;42.334;23.550;2022-10-15T06:38:03;11.09;74.80
66861;SHT31;53770;42.334;23.550;2022-10-15T06:40:31;11.20;74.50
66861;SHT31;53770;42.334;23.550;2022-10-15T06:43:03;11.28;73.91
66861;SHT31;53770;42.334;23.550;2022-10-15T06:45:31;11.38;73.18
66861;SHT31;53770;42.334;23.550;2022-10-15T06:47:58;11.43;73.40
66861;SHT31;53770;42.334;23.550;2022-10-15T06:50:26;11.55;73.30
66861;SHT31;53770;42.334;23.550;2022-10-15T06:52:53;11.67;72.71
66861;SHT31;53770;42.334;23.550;2022-10-15T06:55:19;11.74;72.31
66861;SHT31;53770;42.334;23.550;2022-10-15T06:57:47;11.79;72.38
66861;SHT31;53770;42.334;23.550;2022-10-15T07:00:15;11.93;71.93
66861;SHT31;53770;42.334;23.550;2022-10-15T07:02:42;12.16;71.65
66861;SHT31;53770;42.334;23.550;2022-10-15T07:05:09;12.40;71.09
66861;SHT31;53770;42.334;23.550;2022-10-15T07:07:37;12.60;69.80
66861;SHT31;53770;42.334;23.550;2022-10-15T07:10:04;12.65;69.98
66861;SHT31;53770;42.334;23.550;2022-10-15T07:12:31;12.74;69.29
66861;SHT31;53770;42.334;23.550;2022-10-15T07:14:58;12.89;68.96
66861;SHT31;53770;42.334;23.550;2022-10-15T07:17:25;13.05;68.89
66861;SHT31;53770;42.334;23.550;2022-10-15T07:19:52;13.26;68.06
66861;SHT31;53770;42.334;23.550;2022-10-15T07:22:18;13.26;68.29
66861;SHT31;53770;42.334;23.550;2022-10-15T07:24:47;13.42;67.61
66861;SHT31;53770;42.334;23.550;2022-10-15T07:27:13;13.50;66.71
66861;SHT31;53770;42.334;23.550;2022-10-15T07:29:40;13.39;66.76
66861;SHT31;53770;42.334;23.550;2022-10-15T07:32:07;13.53;66.93
66861;SHT31;53770;42.334;23.550;2022-10-15T07:34:34;13.70;66.48
66861;SHT31;53770;42.334;23.550;2022-10-15T07:37:01;13.78;66.20
66861;SHT31;53770;42.334;23.550;2022-10-15T07:39:27;13.97;65.54
66861;SHT31;53770;42.334;23.550;2022-10-15T07:41:55;14.04;65.66
66861;SHT31;53770;42.334;23.550;2022-10-15T07:44:22;14.15;65.72
66861;SHT31;53770;42.334;23.550;2022-10-15T07:46:49;14.33;65.25
66861;SHT31;53770;42.334;23.550;2022-10-15T07:49:16;14.49;64.91
66861;SHT31;53770;42.334;23.550;2022-10-15T07:51:43;14.55;64.33
66861;SHT31;53770;42.334;23.550;2022-10-15T07:54:09;14.60;64.30
66861;SHT31;53770;42.334;23.550;2022-10-15T07:56:36;14.76;63.84
66861;SHT31;53770;42.334;23.550;2022-10-15T07:59:04;14.79;64.39
66861;SHT31;53770;42.334;23.550;2022-10-15T08:01:33;15.08;63.89
66861;SHT31;53770;42.334;23.550;2022-10-15T08:04:00;15.34;63.47
66861;SHT31;53770;42.334;23.550;2022-10-15T08:06:26;15.43;61.79
66861;SHT31;53770;42.334;23.550;2022-10-15T08:08:53;15.50;61.72
66861;SHT31;53770;42.334;23.550;2022-10-15T08:11:20;15.65;60.71
66861;SHT31;53770;42.334;23.550;2022-10-15T08:13:47;15.59;61.35
66861;SHT31;53770;42.334;23.550;2022-10-15T08:16:15;15.66;60.67
66861;SHT31;53770;42.334;23.550;2022-10-15T08:18:44;15.69;60.17
66861;SHT31;53770;42.334;23.550;2022-10-15T08:21:11;15.90;59.18
66861;SHT31;53770;42.334;23.550;2022-10-15T08:23:38;16.20;58.42
66861;SHT31;53770;42.334;23.550;2022-10-15T08:26:05;16.65;56.55
66861;SHT31;53770;42.334;23.550;2022-10-15T08:28:33;16.66;55.08
66861;SHT31;53770;42.334;23.550;2022-10-15T08:31:01;16.89;55.83
66861;SHT31;53770;42.334;23.550;2022-10-15T08:33:29;17.39;54.87
66861;SHT31;53770;42.334;23.550;2022-10-15T08:35:57;18.03;52.58
66861;SHT31;53770;42.334;23.550;2022-10-15T08:38:23;18.65;50.91
66861;SHT31;53770;42.334;23.550;2022-10-15T08:40:53;19.23;49.82
66861;SHT31;53770;42.334;23.550;2022-10-15T08:43:23;19.77;46.86
66861;SHT31;53770;42.334;23.550;2022-10-15T08:45:53;19.54;46.83
66861;SHT31;53770;42.334;23.550;2022-10-15T08:48:29;19.51;47.40
66861;SHT31;53770;42.334;23.550;2022-10-15T08:50:59;19.89;47.04
66861;SHT31;53770;42.334;23.550;2022-10-15T08:53:27;20.26;45.86
66861;SHT31;53770;42.334;23.550;2022-10-15T08:55:57;20.41;45.34
66861;SHT31;53770;42.334;23.550;2022-10-15T08:58:34;20.61;44.37
66861;SHT31;53770;42.334;23.550;2022-10-15T09:01:08;20.63;44.08
66861;SHT31;53770;42.334;23.550;2022-10-15T09:03:43;20.63;44.41
66861;SHT31;53770;42.334;23.550;2022-10-15T09:06:18;20.48;44.49
66861;SHT31;53770;42.334;23.550;2022-10-15T09:08:51;20.90;44.20
66861;SHT31;53770;42.334;23.550;2022-10-15T09:11:28;21.26;43.38
66861;SHT31;53770;42.334;23.550;2022-10-15T09:13:56;21.88;43.07
66861;SHT31;53770;42.334;23.550;2022-10-15T09:16:26;22.56;41.22
66861;SHT31;53770;42.334;23.550;2022-10-15T09:18:57;23.28;38.54
66861;SHT31;53770;42.334;23.550;2022-10-15T09:21:26;23.87;37.81
66861;SHT31;53770;42.334;23.550;2022-10-15T09:23:55;24.38;36.88
66861;SHT31;53770;42.334;23.550;2022-10-15T09:26:27;24.82;35.82
66861;SHT31;53770;42.334;23.550;2022-10-15T09:29:01;24.58;35.63
66861;SHT31;53770;42.334;23.550;2022-10-15T09:31:34;24.17;35.87
66861;SHT31;53770;42.334;23.550;2022-10-15T09:34:11;24.38;35.67
66861;SHT31;53770;42.334;23.550;2022-10-15T09:36:43;24.76;34.93
66861;SHT31;53770;42.334;23.550;2022-10-15T09:42:19;24.31;34.85
66861;SHT31;53770;42.334;23.550;2022-10-15T09:44:47;24.97;34.83
66861;SHT31;53770;42.334;23.550;2022-10-15T09:47:17;25.88;33.33
66861;SHT31;53770;42.334;23.550;2022-10-15T09:49:49;26.20;31.86
66861;SHT31;53770;42.334;23.550;2022-10-15T09:52:21;25.80;32.45
66861;SHT31;53770;42.334;23.550;2022-10-15T09:54:57;25.45;32.33
66861;SHT31;53770;42.334;23.550;2022-10-15T09:57:30;25.58;32.05
66861;SHT31;53770;42.334;23.550;2022-10-15T10:00:00;26.12;31.62
66861;SHT31;53770;42.334;23.550;2022-10-15T10:02:28;26.13;29.65
66861;SHT31;53770;42.334;23.550;2022-10-15T10:04:56;25.57;28.54
66861;SHT31;53770;42.334;23.550;2022-10-15T10:07:28;24.92;29.12
66861;SHT31;53770;42.334;23.550;2022-10-15T10:09:57;24.76;29.69
66861;SHT31;53770;42.334;23.550;2022-10-15T10:12:31;24.57;30.49
66861;SHT31;53770;42.334;23.550;2022-10-15T10:15:00;24.83;30.42
66861;SHT31;53770;42.334;23.550;2022-10-15T10:17:28;26.12;29.04
66861;SHT31;53770;42.334;23.550;2022-10-15T10:20:15;28.77;26.12
66861;SHT31;53770;42.334;23.550;2022-10-15T10:22:44;30.44;23.66
66861;SHT31;53770;42.334;23.550;2022-10-15T10:25:28;31.38;22.82
66861;SHT31;53770;42.334;23.550;2022-10-15T10:27:57;31.60;22.31
66861;SHT31;53770;42.334;23.550;2022-10-15T10:30:24;32.49;21.20
66861;SHT31;53770;42.334;23.550;2022-10-15T10:32:55;33.01;21.27
66861;SHT31;53770;42.334;23.550;2022-10-15T10:35:26;32.90;21.09
66861;SHT31;53770;42.334;23.550;2022-10-15T10:37:54;33.65;20.88
66861;SHT31;53770;42.334;23.550;2022-10-15T10:40:23;34.80;19.49
66861;SHT31;53770;42.334;23.550;2022-10-15T10:43:09;36.08;18.32
66861;SHT31;53770;42.334;23.550;2022-10-15T10:45:36;37.14;17.36
66861;SHT31;53770;42.334;23.550;2022-10-15T10:48:17;37.69;17.46
66861;SHT31;53770;42.334;23.550;2022-10-15T10:50:46;37.90;17.12
66861;SHT31;53770;42.334;23.550;2022-10-15T10:53:20;37.47;17.21
66861;SHT31;53770;42.334;23.550;2022-10-15T10:55:48;35.27;18.74
66861;SHT31;53770;42.334;23.550;2022-10-15T10:58:18;36.06;18.04
66861;SHT31;53770;42.334;23.550;2022-10-15T11:00:47;37.05;17.56
66861;SHT31;53770;42.334;23.550;2022-10-15T11:03:21;37.77;16.61
66861;SHT31;53770;42.334;23.550;2022-10-15T11:05:59;38.76;15.78
66861;SHT31;53770;42.334;23.550;2022-10-15T11:08:30;39.33;15.63
66861;SHT31;53770;42.334;23.550;2022-10-15T11:11:07;39.66;15.44
66861;SHT31;53770;42.334;23.550;2022-10-15T11:13:49;39.68;14.77
66861;SHT31;53770;42.334;23.550;2022-10-15T11:16:23;40.08;14.75
66861;SHT31;53770;42.334;23.550;2022-10-15T11:19:05;38.66;15.33
66861;SHT31;53770;42.334;23.550;2022-10-15T11:21:41;36.18;16.47
66861;SHT31;53770;42.334;23.550;2022-10-15T11:24:14;33.73;18.49
66861;SHT31;53770;42.334;23.550;2022-10-15T11:26:54;32.23;19.85
66861;SHT31;53770;42.334;23.550;2022-10-15T11:29:28;31.96;20.00
66861;SHT31;53770;42.334;23.550;2022-10-15T11:32:07;33.39;19.29
66861;SHT31;53770;42.334;23.550;2022-10-15T11:34:47;35.65;17.60
66861;SHT31;53770;42.334;23.550;2022-10-15T11:37:27;36.57;16.32
66861;SHT31;53770;42.334;23.550;2022-10-15T11:40:14;37.11;16.34
66861;SHT31;53770;42.334;23.550;2022-10-15T11:42:52;38.72;15.23
66861;SHT31;53770;42.334;23.550;2022-10-15T11:45:52;38.52;15.04
66861;SHT31;53770;42.334;23.550;2022-10-15T11:48:31;37.90;15.54
66861;SHT31;53770;42.334;23.550;2022-10-15T11:51:05;38.13;15.13
66861;SHT31;53770;42.334;23.550;2022-10-15T11:53:57;37.50;15.10
66861;SHT31;53770;42.334;23.550;2022-10-15T11:56:33;38.05;15.07
66861;SHT31;53770;42.334;23.550;2022-10-15T11:59:03;37.53;15.41
66861;SHT31;53770;42.334;23.550;2022-10-15T12:01:34;37.43;15.30
66861;SHT31;53770;42.334;23.550;2022-10-15T12:04:10;36.84;15.72
66861;SHT31;53770;42.334;23.550;2022-10-15T12:06:43;36.29;16.07
66861;SHT31;53770;42.334;23.550;2022-10-15T12:09:24;36.47;16.20
66861;SHT31;53770;42.334;23.550;2022-10-15T12:11:55;36.16;16.13
66861;SHT31;53770;42.334;23.550;2022-10-15T12:14:29;35.77;16.64
66861;SHT31;53770;42.334;23.550;2022-10-15T12:17:03;34.65;16.88
66861;SHT31;53770;42.334;23.550;2022-10-15T12:19:38;32.87;17.91
66861;SHT31;53770;42.334;23.550;2022-10-15T12:22:06;30.83;19.72
66861;SHT31;53770;42.334;23.550;2022-10-15T12:24:51;29.24;21.21
66861;SHT31;53770;42.334;23.550;2022-10-15T12:27:27;28.91;21.49
66861;SHT31;53770;42.334;23.550;2022-10-15T12:30:20;28.29;22.02
66861;SHT31;53770;42.334;23.550;2022-10-15T12:32:49;29.27;21.26
66861;SHT31;53770;42.334;23.550;2022-10-15T12:35:36;29.54;20.86
66861;SHT31;53770;42.334;23.550;2022-10-15T12:38:17;28.94;21.23
66861;SHT31;53770;42.334;23.550;2022-10-15T12:40:54;28.70;21.76
66861;SHT31;53770;42.334;23.550;2022-10-15T12:43:22;28.55;21.89
66861;SHT31;53770;42.334;23.550;2022-10-15T12:45:51;28.60;21.95
66861;SHT31;53770;42.334;23.550;2022-10-15T12:48:32;29.82;21.19
66861;SHT31;53770;42.334;23.550;2022-10-15T12:54:37;30.59;20.37
66861;SHT31;53770;42.334;23.550;2022-10-15T13:03:33;28.46;21.94
66861;SHT31;53770;42.334;23.550;2022-10-15T13:06:22;28.18;21.81
66861;SHT31;53770;42.334;23.550;2022-10-15T13:08:52;29.66;20.86
66861;SHT31;53770;42.334;23.550;2022-10-15T13:11:21;30.37;20.17
66861;SHT31;53770;42.334;23.550;2022-10-15T13:13:51;31.61;19.50
66861;SHT31;53770;42.334;23.550;2022-10-15T13:16:21;32.91;18.69
66861;SHT31;53770;42.334;23.550;2022-10-15T13:18:50;34.13;17.99
66861;SHT31;53770;42.334;23.550;2022-10-15T13:21:17;34.95;17.33
66861;SHT31;53770;42.334;23.550;2022-10-15T13:23:45;35.07;16.96
66861;SHT31;53770;42.334;23.550;2022-10-15T13:26:17;34.61;17.03
66861;SHT31;53770;42.334;23.550;2022-10-15T13:28:45;34.66;17.07
66861;SHT31;53770;42.334;23.550;2022-10-15T13:31:15;34.28;17.12
66861;SHT31;53770;42.334;23.550;2022-10-15T13:33:47;33.56;17.93
66861;SHT31;53770;42.334;23.550;2022-10-15T13:36:19;33.87;17.66
66861;SHT31;53770;42.334;23.550;2022-10-15T13:38:52;33.36;17.87
66861;SHT31;53770;42.334;23.550;2022-10-15T13:41:24;30.74;19.52
66861;SHT31;53770;42.334;23.550;2022-10-15T13:43:51;29.22;21.31
66861;SHT31;53770;42.334;23.550;2022-10-15T13:46:23;30.03;20.70
66861;SHT31;53770;42.334;23.550;2022-10-15T13:48:57;30.02;20.53
66861;SHT31;53770;42.334;23.550;2022-10-15T13:51:30;30.76;19.60
66861;SHT31;53770;42.334;23.550;2022-10-15T13:53:58;30.41;19.82
66861;SHT31;53770;42.334;23.550;2022-10-15T13:56:29;29.01;20.96
66861;SHT31;53770;42.334;23.550;2022-10-15T13:58:57;27.56;21.98
66861;SHT31;53770;42.334;23.550;2022-10-15T14:01:26;26.13;23.86
66861;SHT31;53770;42.334;23.550;2022-10-15T14:03:54;25.35;24.98
66861;SHT31;53770;42.334;23.550;2022-10-15T14:06:25;24.72;26.30
66861;SHT31;53770;42.334;23.550;2022-10-15T14:08:53;24.38;27.14
66861;SHT31;53770;42.334;23.550;2022-10-15T14:11:20;24.24;27.39
66861;SHT31;53770;42.334;23.550;2022-10-15T14:13:52;24.61;27.06
66861;SHT31;53770;42.334;23.550;2022-10-15T14:16:21;24.96;26.70
66861;SHT31;53770;42.334;23.550;2022-10-15T14:18:51;24.65;26.42
66861;SHT31;53770;42.334;23.550;2022-10-15T14:21:20;25.13;25.83
66861;SHT31;53770;42.334;23.550;2022-10-15T14:24:02;25.30;25.62
66861;SHT31;53770;42.334;23.550;2022-10-15T14:26:30;24.86;26.04
66861;SHT31;53770;42.334;23.550;2022-10-15T14:28:58;24.03;27.07
66861;SHT31;53770;42.334;23.550;2022-10-15T14:31:30;23.70;27.70
66861;SHT31;53770;42.334;23.550;2022-10-15T14:33:57;23.41;28.39
66861;SHT31;53770;42.334;23.550;2022-10-15T14:36:26;22.67;29.38
66861;SHT31;53770;42.334;23.550;2022-10-15T14:38:55;21.70;30.88
66861;SHT31;53770;42.334;23.550;2022-10-15T14:41:54;20.63;32.30
66861;SHT31;53770;42.334;23.550;2022-10-15T14:44:20;19.96;33.26
66861;SHT31;53770;42.334;23.550;2022-10-15T14:46:49;19.33;33.91
66861;SHT31;53770;42.334;23.550;2022-10-15T14:49:23;19.05;34.70
66861;SHT31;53770;42.334;23.550;2022-10-15T14:51:56;19.95;33.50
66861;SHT31;53770;42.334;23.550;2022-10-15T14:54:31;21.19;31.68
66861;SHT31;53770;42.334;23.550;2022-10-15T14:56:58;21.95;30.37
66861;SHT31;53770;42.334;23.550;2022-10-15T14:59:29;22.43;29.96
66861;SHT31;53770;42.334;23.550;2022-10-15T15:01:59;22.70;29.65
66861;SHT31;53770;42.334;23.550;2022-10-15T15:04:34;22.79;29.74
66861;SHT31;53770;42.334;23.550;2022-10-15T15:07:01;22.81;29.91
66861;SHT31;53770;42.334;23.550;2022-10-15T15:09:29;22.69;30.05
66861;SHT31;53770;42.334;23.550;2022-10-15T15:11:56;21.74;31.56
66861;SHT31;53770;42.334;23.550;2022-10-15T15:14:24;20.56;33.55
66861;SHT31;53770;42.334;23.550;2022-10-15T15:16:51;19.50;35.69
66861;SHT31;53770;42.334;23.550;2022-10-15T15:19:18;18.59;37.64
66861;SHT31;53770;42.334;23.550;2022-10-15T15:21:44;17.99;38.76
66861;SHT31;53770;42.334;23.550;2022-10-15T15:24:11;17.58;40.32
66861;SHT31;53770;42.334;23.550;2022-10-15T15:26:39;17.30;40.54
66861;SHT31;53770;42.334;23.550;2022-10-15T15:29:11;17.02;41.82
66861;SHT31;53770;42.334;23.550;2022-10-15T15:31:39;16.73;42.50
66861;SHT31;53770;42.334;23.550;2022-10-15T15:34:05;16.44;43.02
66861;SHT31;53770;42.334;23.550;2022-10-15T15:36:32;16.13;44.16
66861;SHT31;53770;42.334;23.550;2022-10-15T15:38:59;15.86;45.26
66861;SHT31;53770;42.334;23.550;2022-10-15T15:41:25;15.60;45.92
66861;SHT31;53770;42.334;23.550;2022-10-15T15:43:54;15.39;45.95
66861;SHT31;53770;42.334;23.550;2022-10-15T15:46:20;15.25;46.67
66861;SHT31;53770;42.334;23.550;2022-10-15T15:48:47;15.05;47.08
66861;SHT31;53770;42.334;23.550;2022-10-15T15:51:19;14.94;47.65
66861;SHT31;53770;42.334;23.550;2022-10-15T15:53:46;14.81;48.19
66861;SHT31;53770;42.334;23.550;2022-10-15T15:56:13;14.70;48.62